createdAt,value
2022-11-12T00:01:20.006Z,4.25
2022-11-12T00:03:47.076Z,4.10
2022-11-12T00:06:14.159Z,4.57
2022-11-12T00:08:41.250Z,3.90
2022-11-12T00:11:08.377Z,3.80
2022-11-12T00:13:35.509Z,4.00
2022-11-12T00:16:02.616Z,4.13
2022-11-12T00:18:29.874Z,4.63
2022-11-12T00:20:57.032Z,4.70
2022-11-12T00:23:24.107Z,9.40
2022-11-12T00:25:59.003Z,5.88
2022-11-12T00:28:26.256Z,4.88
2022-11-12T00:30:53.502Z,4.35
2022-11-12T00:33:20.579Z,6.70
2022-11-12T00:35:48.820Z,6.90
2022-11-12T00:38:16.068Z,5.85
2022-11-12T00:40:43.230Z,5.47
2022-11-12T00:43:10.341Z,5.47
2022-11-12T00:45:37.419Z,4.95
2022-11-12T00:48:04.597Z,4.20
2022-11-12T00:50:31.665Z,3.80
2022-11-12T00:52:58.775Z,3.60
2022-11-12T00:55:25.861Z,3.53
2022-11-12T00:57:52.985Z,3.60
2022-11-12T01:00:20.487Z,3.78
2022-11-12T01:02:51.085Z,3.70
2022-11-12T01:05:19.107Z,3.90
2022-11-12T01:07:48.439Z,3.75
2022-11-12T01:10:18.810Z,3.30
2022-11-12T01:12:45.961Z,3.45
2022-11-12T01:15:13.071Z,3.60
2022-11-12T01:17:40.147Z,4.00
2022-11-12T01:20:07.566Z,3.35
2022-11-12T01:22:34.801Z,4.03
2022-11-12T01:25:01.955Z,4.00
2022-11-12T01:27:29.043Z,3.70
2022-11-12T01:29:56.123Z,3.70
2022-11-12T01:32:23.293Z,3.80
2022-11-12T01:34:51.718Z,4.05
2022-11-12T01:37:18.811Z,3.90
2022-11-12T01:39:45.869Z,4.22
2022-11-12T01:42:13.114Z,3.78
2022-11-12T01:44:42.829Z,3.97
2022-11-12T01:47:29.864Z,4.15
2022-11-12T01:50:00.898Z,3.90
2022-11-12T01:52:31.513Z,3.55
2022-11-12T01:55:01.396Z,3.80
2022-11-12T01:57:34.787Z,3.65
2022-11-12T02:00:06.601Z,3.33
2022-11-12T02:02:34.190Z,6.60
2022-11-12T02:05:02.133Z,6.28
2022-11-12T02:07:29.966Z,7.78
2022-11-12T02:09:57.095Z,6.80
2022-11-12T02:12:42.803Z,6.57
2022-11-12T02:15:10.072Z,7.32
2022-11-12T02:17:37.225Z,7.57
2022-11-12T02:20:04.452Z,7.80
2022-11-12T02:22:31.580Z,8.73
2022-11-12T02:24:58.680Z,7.90
2022-11-12T02:27:25.921Z,6.57
2022-11-12T02:29:53.025Z,8.73
2022-11-12T02:32:20.116Z,10.32
2022-11-12T02:34:47.226Z,9.75
2022-11-12T02:37:14.321Z,7.03
2022-11-12T02:39:41.389Z,8.25
2022-11-12T02:42:08.489Z,5.95
2022-11-12T02:44:35.583Z,6.40
2022-11-12T02:47:02.661Z,5.63
2022-11-12T02:49:29.735Z,5.43
2022-11-12T02:51:56.829Z,5.82
2022-11-12T02:54:24.058Z,5.50
2022-11-12T02:56:51.150Z,5.55
2022-11-12T02:59:18.293Z,6.70
2022-11-12T03:01:45.402Z,7.97
2022-11-12T03:04:12.465Z,7.90
2022-11-12T03:06:39.941Z,8.38
2022-11-12T03:09:07.072Z,7.43
2022-11-12T03:11:34.280Z,7.28
2022-11-12T03:14:02.067Z,6.80
2022-11-12T03:16:29.125Z,6.03
2022-11-12T03:18:56.189Z,5.57
2022-11-12T03:21:23.294Z,4.90
2022-11-12T03:23:50.458Z,4.93
2022-11-12T03:26:17.501Z,4.72
2022-11-12T03:28:44.582Z,5.25
2022-11-12T03:31:11.982Z,5.60
2022-11-12T03:33:39.109Z,5.65
2022-11-12T03:36:06.449Z,5.43
2022-11-12T03:38:33.548Z,6.35
2022-11-12T03:41:00.678Z,6.35
2022-11-12T03:43:27.764Z,6.78
2022-11-12T03:45:54.852Z,7.60
2022-11-12T03:48:21.938Z,8.32
2022-11-12T03:50:49.055Z,8.75
2022-11-12T03:53:16.184Z,7.28
2022-11-12T03:55:43.281Z,7.30
2022-11-12T03:58:10.375Z,9.10
2022-11-12T04:00:37.421Z,8.25
2022-11-12T04:03:04.514Z,7.93
2022-11-12T04:05:50.347Z,15.63
2022-11-12T04:08:37.573Z,11.80
2022-11-12T04:11:06.480Z,6.65
2022-11-12T04:13:33.617Z,9.25
2022-11-12T04:16:25.147Z,8.10
2022-11-12T04:19:12.405Z,9.18
2022-11-12T04:21:52.040Z,8.05
2022-11-12T04:24:39.276Z,8.40
2022-11-12T04:27:06.375Z,8.95
2022-11-12T04:29:52.150Z,8.95
2022-11-12T04:32:19.277Z,8.73
2022-11-12T04:34:46.481Z,10.88
2022-11-12T04:37:13.885Z,40.38
2022-11-12T04:39:40.971Z,44.00
2022-11-12T04:42:28.242Z,39.38
2022-11-12T04:45:03.662Z,38.22
2022-11-12T04:47:40.965Z,36.92
2022-11-12T04:50:09.903Z,26.33
2022-11-12T04:52:36.972Z,13.80
2022-11-12T04:55:04.366Z,11.02
2022-11-12T04:57:31.468Z,9.77
2022-11-12T04:59:58.581Z,10.70
2022-11-12T05:02:25.701Z,11.93
2022-11-12T05:04:52.779Z,11.63
2022-11-12T05:07:19.984Z,19.83
2022-11-12T05:09:47.193Z,17.70
2022-11-12T05:12:14.449Z,14.02
2022-11-12T05:14:41.561Z,12.40
2022-11-12T05:17:08.747Z,10.50
2022-11-12T05:19:36.126Z,8.70
2022-11-12T05:22:06.294Z,9.10
2022-11-12T05:24:42.043Z,10.45
2022-11-12T05:27:20.051Z,9.05
2022-11-12T05:29:47.380Z,8.63
2022-11-12T05:32:15.352Z,9.55
2022-11-12T05:34:42.719Z,7.45
2022-11-12T05:37:10.584Z,11.02
2022-11-12T05:39:37.757Z,7.68
2022-11-12T05:42:13.830Z,8.60
2022-11-12T05:44:41.761Z,7.85
2022-11-12T05:47:08.849Z,7.50
2022-11-12T05:49:35.920Z,6.43
2022-11-12T05:52:03.062Z,6.70
2022-11-12T05:54:30.220Z,6.50
2022-11-12T05:56:57.297Z,6.50
2022-11-12T05:59:24.509Z,6.30
2022-11-12T06:01:51.585Z,6.82
2022-11-12T06:04:18.773Z,6.20
2022-11-12T06:06:45.879Z,6.03
2022-11-12T06:09:13.054Z,6.03
2022-11-12T06:11:40.139Z,6.18
2022-11-12T06:14:07.305Z,5.30
2022-11-12T06:16:34.507Z,6.40
2022-11-12T06:19:01.589Z,6.40
2022-11-12T06:21:28.694Z,6.95
2022-11-12T06:23:57.505Z,7.38
2022-11-12T06:26:25.629Z,7.85
2022-11-12T06:28:53.129Z,8.80
2022-11-12T06:31:20.971Z,8.80
2022-11-12T06:33:48.580Z,7.38
2022-11-12T06:36:17.016Z,7.40
2022-11-12T06:38:45.237Z,8.13
2022-11-12T06:41:12.997Z,11.38
2022-11-12T06:43:40.667Z,10.35
2022-11-12T06:46:09.101Z,9.75
2022-11-12T06:48:36.241Z,9.23
2022-11-12T06:51:10.734Z,9.70
2022-11-12T06:53:37.945Z,7.60
2022-11-12T06:56:05.860Z,8.65
2022-11-12T06:58:32.969Z,7.55
2022-11-12T07:01:10.937Z,7.50
2022-11-12T07:03:39.145Z,7.10
2022-11-12T07:06:07.156Z,7.10
2022-11-12T07:08:34.629Z,7.07
2022-11-12T07:11:01.845Z,9.30
2022-11-12T07:13:30.527Z,6.78
2022-11-12T07:15:58.565Z,6.30
2022-11-12T07:18:26.497Z,6.93
2022-11-12T07:20:58.152Z,6.32
2022-11-12T07:23:25.235Z,6.60
2022-11-12T07:25:59.001Z,7.43
2022-11-12T07:28:27.456Z,9.02
2022-11-12T07:31:01.995Z,7.38
2022-11-12T07:33:43.140Z,7.60
2022-11-12T07:37:06.766Z,6.53
2022-11-12T07:39:18.920Z,12.30
2022-11-12T07:41:46.071Z,12.10
2022-11-12T07:44:13.184Z,9.82
2022-11-12T07:46:40.526Z,8.57
2022-11-12T07:49:07.601Z,7.93
2022-11-12T07:51:34.734Z,11.55
2022-11-12T07:54:01.878Z,10.15
2022-11-12T07:56:29.615Z,6.53
2022-11-12T07:58:56.857Z,7.97
2022-11-12T08:01:23.997Z,6.47
2022-11-12T08:03:51.165Z,3.85
2022-11-12T08:06:18.248Z,4.50
2022-11-12T08:08:45.328Z,4.38
2022-11-12T08:11:12.526Z,4.22
2022-11-12T08:13:39.635Z,4.07
2022-11-12T08:16:06.844Z,4.05
2022-11-12T08:18:34.143Z,4.25
2022-11-12T08:21:01.626Z,3.83
2022-11-12T08:23:28.917Z,4.60
2022-11-12T08:26:02.804Z,4.70
2022-11-12T08:28:30.571Z,4.05
2022-11-12T08:30:58.014Z,4.25
2022-11-12T08:33:25.171Z,4.75
2022-11-12T08:35:52.316Z,4.85
2022-11-12T08:38:19.468Z,5.38
2022-11-12T08:40:46.566Z,5.88
2022-11-12T08:43:13.627Z,4.88
2022-11-12T08:45:41.447Z,5.90
2022-11-12T08:48:14.259Z,5.40
2022-11-12T08:50:41.890Z,5.07
2022-11-12T08:53:13.129Z,5.40
2022-11-12T08:55:40.603Z,4.63
2022-11-12T08:58:07.777Z,4.03
2022-11-12T09:00:39.826Z,4.50
2022-11-12T09:03:07.564Z,5.22
2022-11-12T09:05:37.721Z,3.70
2022-11-12T09:08:06.440Z,5.22
2022-11-12T09:10:33.978Z,4.60
2022-11-12T09:13:01.268Z,3.83
2022-11-12T09:15:38.201Z,4.13
2022-11-12T09:18:07.088Z,4.07
2022-11-12T09:20:34.251Z,4.43
2022-11-12T09:23:06.017Z,4.10
2022-11-12T09:25:33.839Z,3.80
2022-11-12T09:28:08.346Z,3.47
2022-11-12T09:30:35.953Z,3.45
2022-11-12T09:33:03.027Z,3.08
2022-11-12T09:35:30.432Z,3.53
2022-11-12T09:37:58.959Z,3.20
2022-11-12T09:40:32.964Z,3.90
2022-11-12T09:43:00.088Z,3.33
2022-11-12T09:45:29.654Z,3.47
2022-11-12T09:47:59.667Z,3.80
2022-11-12T09:50:29.359Z,3.85
2022-11-12T09:53:05.729Z,4.00
2022-11-12T09:55:38.864Z,4.03
2022-11-12T09:58:12.946Z,4.10
2022-11-12T10:00:44.996Z,4.18
2022-11-12T10:03:23.887Z,4.32
2022-11-12T10:06:18.127Z,4.68
2022-11-12T10:08:53.654Z,4.05
2022-11-12T10:11:29.822Z,4.10
2022-11-12T10:13:59.640Z,3.90
2022-11-12T10:16:44.684Z,4.32
2022-11-12T10:19:11.729Z,3.78
2022-11-12T10:21:38.801Z,3.90
2022-11-12T10:24:08.766Z,3.85
2022-11-12T10:26:37.780Z,3.70
2022-11-12T10:29:23.849Z,4.05
2022-11-12T10:31:50.926Z,3.55
2022-11-12T10:34:19.225Z,3.92
2022-11-12T10:36:49.605Z,3.60
2022-11-12T10:39:33.340Z,3.90
2022-11-12T10:42:10.766Z,4.07
2022-11-12T10:44:38.465Z,4.22
2022-11-12T10:47:23.713Z,4.40
2022-11-12T10:50:05.416Z,4.22
2022-11-12T10:52:32.781Z,3.88
2022-11-12T10:55:18.481Z,4.90
2022-11-12T10:57:45.638Z,5.28
2022-11-12T11:00:18.967Z,4.80
2022-11-12T11:02:55.855Z,4.80
2022-11-12T11:05:47.991Z,5.30
2022-11-12T11:08:15.122Z,4.18
2022-11-12T11:10:42.197Z,3.75
2022-11-12T11:13:38.525Z,3.65
2022-11-12T11:16:07.057Z,3.40
2022-11-12T11:18:38.491Z,3.40
2022-11-12T11:21:17.508Z,3.13
2022-11-12T11:24:03.442Z,3.25
2022-11-12T11:26:30.503Z,3.33
2022-11-12T11:29:07.866Z,3.20
2022-11-12T11:31:40.739Z,3.35
2022-11-12T11:34:10.703Z,4.18
2022-11-12T11:36:56.380Z,3.45
2022-11-12T11:39:49.813Z,3.47
2022-11-12T11:42:32.317Z,3.10
2022-11-12T11:45:08.377Z,3.25
2022-11-12T11:47:59.823Z,2.90
2022-11-12T11:50:30.928Z,3.38
2022-11-12T11:53:16.433Z,2.83
2022-11-12T11:55:54.258Z,5.18
2022-11-12T11:58:25.089Z,5.90
2022-11-12T12:01:05.773Z,4.28
2022-11-12T12:03:42.469Z,3.97
2022-11-12T12:06:21.042Z,2.58
2022-11-12T12:08:48.162Z,3.38
2022-11-12T12:11:18.357Z,2.50
2022-11-12T12:13:45.437Z,2.50
2022-11-12T12:16:24.884Z,2.58
2022-11-12T12:18:51.941Z,3.08
2022-11-12T12:21:19.976Z,2.78
2022-11-12T12:23:55.964Z,2.72
2022-11-12T12:26:32.160Z,3.13
2022-11-12T12:28:59.191Z,2.20
2022-11-12T12:31:36.270Z,3.35
2022-11-12T12:34:05.549Z,2.17
2022-11-12T12:36:35.032Z,3.20
2022-11-12T12:39:13.623Z,2.85
2022-11-12T12:41:43.677Z,3.17
2022-11-12T12:44:11.384Z,2.95
2022-11-12T12:46:41.378Z,2.60
2022-11-12T12:49:12.148Z,2.25
2022-11-12T12:51:39.224Z,2.22
2022-11-12T12:54:26.317Z,1.95
2022-11-12T12:56:53.447Z,2.33
2022-11-12T12:59:21.831Z,2.30
2022-11-12T13:01:57.012Z,2.53
2022-11-12T13:04:43.990Z,2.25
2022-11-12T13:07:11.298Z,2.28
2022-11-12T13:09:38.511Z,2.13
2022-11-12T13:12:05.708Z,3.08
2022-11-12T13:14:38.491Z,2.40
2022-11-12T13:19:36.142Z,2.35
2022-11-12T13:22:18.675Z,2.40
2022-11-12T13:25:00.937Z,2.33
2022-11-12T13:27:40.216Z,2.45
2022-11-12T13:30:08.396Z,2.75
2022-11-12T13:32:37.379Z,2.55
2022-11-12T13:35:22.852Z,3.05
2022-11-12T13:38:12.180Z,2.88
2022-11-12T13:40:39.341Z,3.10
2022-11-12T13:43:25.314Z,3.35
2022-11-12T13:45:58.460Z,2.70
2022-11-12T13:48:28.034Z,3.00
2022-11-12T13:50:57.011Z,3.08
2022-11-12T13:53:26.069Z,2.45
2022-11-12T13:55:54.245Z,3.00
2022-11-12T13:58:34.539Z,2.80
2022-11-12T14:01:02.671Z,2.50
2022-11-12T14:03:31.901Z,2.40
2022-11-12T14:06:02.315Z,2.42
2022-11-12T14:08:48.200Z,2.95
2022-11-12T14:11:15.250Z,4.00
2022-11-12T14:13:48.261Z,3.50
2022-11-12T14:16:21.124Z,5.50
2022-11-12T14:18:59.326Z,6.90
2022-11-12T14:21:26.442Z,6.20
2022-11-12T14:23:53.677Z,4.88
2022-11-12T14:26:34.548Z,5.72
2022-11-12T14:29:01.644Z,5.93
2022-11-12T14:31:28.761Z,6.25
2022-11-12T14:33:55.884Z,7.22
2022-11-12T14:36:23.595Z,5.40
2022-11-12T14:38:55.467Z,4.65
2022-11-12T14:41:26.852Z,4.63
2022-11-12T14:44:11.503Z,4.10
2022-11-12T14:46:50.344Z,5.10
2022-11-12T14:49:20.166Z,4.32
2022-11-12T14:52:08.891Z,3.28
2022-11-12T14:54:41.447Z,3.45
2022-11-12T14:57:11.915Z,3.47
2022-11-12T14:59:39.089Z,3.72
2022-11-12T15:02:37.319Z,4.40
2022-11-12T15:05:14.463Z,4.88
2022-11-12T15:08:07.616Z,4.63
2022-11-12T15:13:03.179Z,4.53
2022-11-12T15:15:30.430Z,4.22
2022-11-12T15:17:59.284Z,4.30
2022-11-12T15:20:26.834Z,3.63
2022-11-12T15:22:54.490Z,3.83
2022-11-12T15:25:24.493Z,5.00
2022-11-12T15:27:51.947Z,5.70
2022-11-12T15:30:26.239Z,5.07
2022-11-12T15:33:08.089Z,5.30
2022-11-12T15:35:36.959Z,12.13
2022-11-12T15:38:06.775Z,9.68
2022-11-12T15:40:33.942Z,11.23
2022-11-12T15:43:01.830Z,9.45
2022-11-12T15:45:28.901Z,10.23
2022-11-12T15:47:56.070Z,7.57
2022-11-12T15:50:24.501Z,7.53
2022-11-12T15:52:51.582Z,7.32
2022-11-12T15:55:18.969Z,8.73
2022-11-12T15:57:50.252Z,9.20
2022-11-12T16:00:19.050Z,9.25
2022-11-12T16:02:47.852Z,8.85
2022-11-12T16:05:18.899Z,8.52
2022-11-12T16:07:46.202Z,6.72
2022-11-12T16:10:17.567Z,7.03
2022-11-12T16:12:45.573Z,6.55
2022-11-12T16:15:14.214Z,7.70
2022-11-12T16:17:41.676Z,9.82
2022-11-12T16:20:21.249Z,8.27
2022-11-12T16:22:49.069Z,6.72
2022-11-12T16:25:16.743Z,5.20
2022-11-12T16:27:44.109Z,5.35
2022-11-12T16:30:17.193Z,4.72
2022-11-12T16:32:44.669Z,3.60
2022-11-12T16:35:12.097Z,4.38
2022-11-12T16:37:39.315Z,5.47
2022-11-12T16:40:07.469Z,6.15
2022-11-12T16:42:34.645Z,8.13
2022-11-12T16:45:01.819Z,7.85
2022-11-12T16:47:28.928Z,7.28
2022-11-12T16:49:56.034Z,8.43
2022-11-12T16:52:23.134Z,11.88
2022-11-12T16:54:50.632Z,8.00
2022-11-12T16:57:17.718Z,10.15
2022-11-12T16:59:46.043Z,12.73
2022-11-12T17:02:16.175Z,12.90
2022-11-12T17:04:43.227Z,11.98
2022-11-12T17:07:10.422Z,11.52
2022-11-12T17:09:37.500Z,10.23
2022-11-12T17:12:04.776Z,8.52
2022-11-12T17:14:32.328Z,5.05
2022-11-12T17:16:59.445Z,6.25
2022-11-12T17:19:26.651Z,5.10
2022-11-12T17:21:53.731Z,5.95
2022-11-12T17:24:20.950Z,7.20
2022-11-12T17:26:48.117Z,8.25
2022-11-12T17:29:15.204Z,11.68
2022-11-12T17:31:42.421Z,14.45
2022-11-12T17:34:10.691Z,14.07
2022-11-12T17:36:43.206Z,12.00
2022-11-12T17:39:11.503Z,10.25
2022-11-12T17:41:38.760Z,7.60
2022-11-12T17:44:06.242Z,9.82
2022-11-12T17:46:34.115Z,6.22
2022-11-12T17:49:01.208Z,5.47
2022-11-12T17:51:29.567Z,8.05
2022-11-12T17:53:56.625Z,6.10
2022-11-12T17:56:24.609Z,11.45
2022-11-12T17:58:52.200Z,12.98
2022-11-12T18:01:20.870Z,12.77
2022-11-12T18:03:50.261Z,10.32
2022-11-12T18:06:18.799Z,11.63
2022-11-12T18:08:45.979Z,9.73
2022-11-12T18:11:13.842Z,9.07
2022-11-12T18:13:41.384Z,9.10
2022-11-12T18:16:19.145Z,9.98
2022-11-12T18:18:46.613Z,9.85
2022-11-12T18:21:13.842Z,11.00
2022-11-12T18:23:43.558Z,12.18
2022-11-12T18:26:13.873Z,12.38
2022-11-12T18:28:40.997Z,12.30
2022-11-12T18:31:08.448Z,15.15
2022-11-12T18:33:37.481Z,12.15
2022-11-12T18:36:06.105Z,9.80
2022-11-12T18:38:36.667Z,10.38
2022-11-12T18:41:08.037Z,10.82
2022-11-12T18:43:36.498Z,10.05
2022-11-12T18:46:03.961Z,9.57
2022-11-12T18:48:31.839Z,9.60
2022-11-12T18:50:59.943Z,8.82
2022-11-12T18:53:30.422Z,8.00
2022-11-12T18:56:00.162Z,9.15
2022-11-12T18:58:33.661Z,9.05
2022-11-12T19:01:02.894Z,9.00
2022-11-12T19:03:30.564Z,9.18
2022-11-12T19:05:58.504Z,8.80
2022-11-12T19:08:26.476Z,8.05
2022-11-12T19:11:00.436Z,7.05
2022-11-12T19:13:27.922Z,6.93
2022-11-12T19:15:55.644Z,7.72
2022-11-12T19:18:22.995Z,7.90
2022-11-12T19:20:50.104Z,22.17
2022-11-12T19:23:17.265Z,17.38
2022-11-12T19:25:44.361Z,15.50
2022-11-12T19:28:11.547Z,8.63
2022-11-12T19:30:38.725Z,7.32
2022-11-12T19:33:05.792Z,8.05
2022-11-12T19:35:33.374Z,7.93
2022-11-12T19:38:00.482Z,10.05
2022-11-12T19:40:27.593Z,9.18
2022-11-12T19:42:54.769Z,7.80
2022-11-12T19:45:22.105Z,8.07
2022-11-12T19:47:50.810Z,6.22
2022-11-12T19:50:23.457Z,6.78
2022-11-12T19:52:54.579Z,6.45
2022-11-12T19:55:21.970Z,5.50
2022-11-12T19:57:49.077Z,6.00
2022-11-12T20:00:16.365Z,5.40
2022-11-12T20:02:43.449Z,5.43
2022-11-12T20:05:10.583Z,4.55
2022-11-12T20:07:37.762Z,4.60
2022-11-12T20:10:05.096Z,4.20
2022-11-12T20:12:32.977Z,3.40
2022-11-12T20:15:00.078Z,3.70
2022-11-12T20:17:27.147Z,4.00
2022-11-12T20:19:54.360Z,4.60
2022-11-12T20:22:21.418Z,5.30
2022-11-12T20:24:48.486Z,5.63
2022-11-12T20:27:17.471Z,6.90
2022-11-12T20:29:44.542Z,7.65
2022-11-12T20:32:11.627Z,10.85
2022-11-12T20:34:38.705Z,14.80
2022-11-12T20:37:05.810Z,24.42
2022-11-12T20:39:32.937Z,26.13
2022-11-12T20:42:01.044Z,20.90
2022-11-12T20:44:28.133Z,18.77
2022-11-12T20:46:55.270Z,15.75
2022-11-12T20:49:22.412Z,14.95
2022-11-12T20:51:49.505Z,10.60
2022-11-12T20:54:16.719Z,11.32
2022-11-12T20:56:44.605Z,15.35
2022-11-12T20:59:11.926Z,11.43
2022-11-12T21:01:40.608Z,11.18
2022-11-12T21:04:07.776Z,6.40
2022-11-12T21:06:35.139Z,6.60
2022-11-12T21:09:02.918Z,5.55
2022-11-12T21:11:30.489Z,6.28
2022-11-12T21:13:59.190Z,6.78
2022-11-12T21:16:26.471Z,7.03
2022-11-12T21:18:53.593Z,8.13
2022-11-12T21:21:21.379Z,8.45
2022-11-12T21:23:53.829Z,11.20
2022-11-12T21:26:21.881Z,13.45
2022-11-12T21:28:50.442Z,13.18
2022-11-12T21:31:23.939Z,14.07
2022-11-12T21:33:52.006Z,13.48
2022-11-12T21:36:20.332Z,12.88
2022-11-12T21:38:47.822Z,13.70
2022-11-12T21:41:16.573Z,13.23
2022-11-12T21:43:44.572Z,12.48
2022-11-12T21:46:15.907Z,12.23
2022-11-12T21:48:43.401Z,8.68
2022-11-12T21:51:12.159Z,7.45
2022-11-12T21:53:39.915Z,5.85
2022-11-12T21:56:13.911Z,5.10
2022-11-12T21:58:41.068Z,4.25
2022-11-12T22:01:19.920Z,6.28
2022-11-12T22:03:47.909Z,5.80
2022-11-12T22:06:15.055Z,5.20
2022-11-12T22:08:42.824Z,5.13
2022-11-12T22:11:13.730Z,4.35
2022-11-12T22:13:41.372Z,3.38
2022-11-12T22:16:11.458Z,2.97
2022-11-12T22:18:39.042Z,3.13
2022-11-12T22:21:13.695Z,3.10
2022-11-12T22:23:41.054Z,3.58
2022-11-12T22:26:10.356Z,4.57
2022-11-12T22:28:37.502Z,4.80
2022-11-12T22:31:14.958Z,5.10
2022-11-12T22:33:42.070Z,4.25
2022-11-12T22:36:10.568Z,3.55
2022-11-12T22:38:38.679Z,3.15
2022-11-12T22:41:06.775Z,2.95
2022-11-12T22:43:34.132Z,3.28
2022-11-12T22:46:07.932Z,3.03
2022-11-12T22:48:35.071Z,2.97
2022-11-12T22:51:06.695Z,3.60
2022-11-12T22:53:33.958Z,5.18
2022-11-12T22:56:08.489Z,4.50
2022-11-12T22:58:36.440Z,5.05
2022-11-12T23:01:05.348Z,4.13
2022-11-12T23:03:33.004Z,4.68
2022-11-12T23:06:00.611Z,4.45
2022-11-12T23:08:27.919Z,4.80
2022-11-12T23:10:55.413Z,4.07
2022-11-12T23:13:22.858Z,4.20
2022-11-12T23:15:49.967Z,4.22
2022-11-12T23:18:17.042Z,4.78
2022-11-12T23:20:44.257Z,4.68
2022-11-12T23:23:11.433Z,4.50
2022-11-12T23:25:38.591Z,4.15
2022-11-12T23:28:08.597Z,4.05
2022-11-12T23:30:36.771Z,3.67
2022-11-12T23:33:04.093Z,3.65
2022-11-12T23:35:31.354Z,3.47
2022-11-12T23:37:58.476Z,3.30
2022-11-12T23:40:30.780Z,3.28
2022-11-12T23:45:25.305Z,3.40
2022-11-12T23:47:52.557Z,3.67
2022-11-12T23:50:19.660Z,3.13
2022-11-12T23:52:46.773Z,3.10
2022-11-12T23:55:13.845Z,2.63
2022-11-12T23:57:40.980Z,2.90
